KHQU

Thomson-McDuffie County Airport

Thomson, Georgia, USA
METAR KHQU 151850Z AUTO 29009G15KT 260V320 10SM BKN025 OVC042 16/12 A2994 RMK AO2 T01640115
Observed Flight Rules
Feb-15 @ 18:50 UTC (22 minutes ago) Marginal Visual Flight Rules
Wind Visibility Clouds
290° at 9 knots
 Gusting to 15 knots
10 miles
  • Broken at 2,500' AGL
  • Overcast at 4,200' AGL
Temperatures Readings
Current 16°C / 61°F
Dewpoint 12°C / 54°F
Humidity 77%
Altimeter 29.94" Hg
Pressure 1013.92 hPa
Elevation 152
METAR KHQU 151850Z AUTO 29009G15KT 260V320 10SM BKN025 OVC042 16/12 A2994 RMK AO2 T01640115
Observed Flight Rules
Feb-15 @ 18:50 UTC
(22 minutes ago)
MVFR
Wind Visibility
290° at 9 knots
 Gusting to 15 knots
10 miles
Clouds
  • Broken at 2,500' AGL
  • Overcast at 4,200' AGL
Temperature Dewpoint
16°C / 61°F 12°C / 54°F
Humidity Altimeter Pressure
77% 29.94" Hg 1013.92 hPa